Time;durP1;ratioP1;P1;durP2;ratioP2;P2;SDS_P1;SDS_P2;PMS_P1;PMS_P2;Temp;Humidity;BMP_temperature;BMP_pressure;BME280_temperature;BME280_humidity;BME280_pressure;Samples;Min_cycle;Max_cycle;Signal;HPM_P1;HPM_P2
2021/10/27 00:01:23;;;;;;;21.30;11.18;;;;;;;;;;5048351;28;20060;-63
2021/10/27 00:03:49;;;;;;;24.80;11.80;;;;;;;;;;5054779;28;20036;-63
2021/10/27 00:06:16;;;;;;;24.15;11.95;;;;;;;;;;5052424;28;20030;-63
2021/10/27 00:08:42;;;;;;;21.58;11.70;;;;;;;;;;5054226;28;20021;-63
2021/10/27 00:11:08;;;;;;;24.52;11.80;;;;;;;;;;5051668;28;20029;-63
2021/10/27 00:13:34;;;;;;;20.20;10.90;;;;;;;;;;5054415;28;20033;-63
2021/10/27 00:16:02;;;;;;;28.63;12.15;;;;;;;;;;5061979;28;20025;-63
2021/10/27 00:18:29;;;;;;;24.70;11.65;;;;;;;;;;5051172;28;20026;-63
2021/10/27 00:20:55;;;;;;;19.83;11.55;;;;;;;;;;5054589;28;20444;-63
2021/10/27 00:23:21;;;;;;;19.50;11.30;;;;;;;;;;5052892;28;20144;-63
2021/10/27 00:25:47;;;;;;;20.25;11.10;;;;;;;;;;5055731;28;20029;-63
2021/10/27 00:28:13;;;;;;;22.48;10.85;;;;;;;;;;5051257;28;20037;-63
2021/10/27 00:30:39;;;;;;;20.75;10.95;;;;;;;;;;5051354;28;20029;-63
2021/10/27 00:33:04;;;;;;;18.92;10.50;;;;;;;;;;5053404;28;20504;-63
2021/10/27 00:35:30;;;;;;;22.70;10.93;;;;;;;;;;5054158;28;20115;-63
2021/10/27 00:37:57;;;;;;;22.38;10.02;;;;;;;;;;5050819;28;20029;-63
2021/10/27 00:40:23;;;;;;;19.42;9.98;;;;;;;;;;5050886;28;20017;-63
2021/10/27 00:42:49;;;;;;;17.83;9.82;;;;;;;;;;5049814;28;20098;-63
2021/10/27 00:45:15;;;;;;;20.63;10.13;;;;;;;;;;5065282;28;20049;-63
2021/10/27 00:47:41;;;;;;;18.55;10.15;;;;;;;;;;5053901;28;20444;-63
2021/10/27 00:50:07;;;;;;;20.15;11.20;;;;;;;;;;5050582;28;20025;-63
2021/10/27 00:52:34;;;;;;;21.80;11.13;;;;;;;;;;5050809;28;20389;-63
2021/10/27 00:55:00;;;;;;;23.10;11.20;;;;;;;;;;5056066;28;20536;-63
2021/10/27 00:57:26;;;;;;;22.08;11.18;;;;;;;;;;5051345;28;20092;-63
2021/10/27 00:59:52;;;;;;;24.05;11.45;;;;;;;;;;5053746;28;20025;-63
2021/10/27 01:02:20;;;;;;;18.15;10.35;;;;;;;;;;5052348;28;20067;-63
2021/10/27 01:04:47;;;;;;;21.88;10.10;;;;;;;;;;5053694;28;20017;-63
2021/10/27 01:07:13;;;;;;;19.25;10.00;;;;;;;;;;5050849;28;20060;-63
2021/10/27 01:09:39;;;;;;;21.70;10.60;;;;;;;;;;5050254;28;20385;-63
2021/10/27 01:12:06;;;;;;;21.23;10.43;;;;;;;;;;5052866;28;20067;-63
2021/10/27 01:14:39;;;;;;;22.00;10.77;;;;;;;;;;5061658;28;20025;-63
2021/10/27 01:17:06;;;;;;;21.65;9.80;;;;;;;;;;5052076;28;20088;-62
2021/10/27 01:19:44;;;;;;;19.70;10.48;;;;;;;;;;5050198;28;20388;-63
2021/10/27 01:22:11;;;;;;;21.42;9.93;;;;;;;;;;5049864;28;20045;-63
2021/10/27 01:24:37;;;;;;;21.85;10.57;;;;;;;;;;5055724;28;20021;-63
2021/10/27 01:27:03;;;;;;;19.15;10.45;;;;;;;;;;5052370;28;20141;-63
2021/10/27 01:29:29;;;;;;;18.58;9.90;;;;;;;;;;5051009;28;20021;-63
2021/10/27 01:31:55;;;;;;;19.10;9.73;;;;;;;;;;5050332;28;20376;-63
2021/10/27 01:34:22;;;;;;;15.02;8.57;;;;;;;;;;5050799;28;20033;-67
2021/10/27 01:36:48;;;;;;;17.45;9.55;;;;;;;;;;5050538;28;20382;-67
2021/10/27 01:39:14;;;;;;;18.92;9.40;;;;;;;;;;5051354;28;20108;-67
2021/10/27 01:41:40;;;;;;;15.85;8.05;;;;;;;;;;5052334;28;20040;-67
2021/10/27 01:44:06;;;;;;;18.85;10.13;;;;;;;;;;5056486;28;20099;-66
2021/10/27 01:46:33;;;;;;;21.40;10.30;;;;;;;;;;5056174;28;20025;-66
2021/10/27 01:49:00;;;;;;;15.73;9.73;;;;;;;;;;5050001;28;20047;-67
2021/10/27 01:51:27;;;;;;;16.77;9.60;;;;;;;;;;5049623;28;20033;-66
2021/10/27 01:53:53;;;;;;;13.80;8.52;;;;;;;;;;5052349;28;20021;-67
2021/10/27 01:56:20;;;;;;;16.35;8.82;;;;;;;;;;5049878;28;20029;-67
2021/10/27 01:58:45;;;;;;;14.52;8.55;;;;;;;;;;5049474;28;20037;-67
2021/10/27 02:01:11;;;;;;;17.73;8.48;;;;;;;;;;5049457;28;20128;-67
2021/10/27 02:03:37;;;;;;;13.80;7.53;;;;;;;;;;5052611;28;20021;-67
2021/10/27 02:06:04;;;;;;;16.02;7.55;;;;;;;;;;5051757;28;20033;-67
2021/10/27 02:08:30;;;;;;;15.68;7.82;;;;;;;;;;5052656;28;20472;-67
2021/10/27 02:10:56;;;;;;;19.83;7.75;;;;;;;;;;5048861;28;20029;-67
2021/10/27 02:13:22;;;;;;;16.90;8.18;;;;;;;;;;5050831;28;20021;-67
2021/10/27 02:15:48;;;;;;;14.70;7.95;;;;;;;;;;5061332;28;20025;-67
2021/10/27 02:18:14;;;;;;;14.60;7.97;;;;;;;;;;5050737;28;20029;-67
2021/10/27 02:20:40;;;;;;;13.98;7.45;;;;;;;;;;5051942;28;20029;-67
2021/10/27 02:23:06;;;;;;;13.20;7.15;;;;;;;;;;5049348;28;20029;-67
2021/10/27 02:25:32;;;;;;;16.65;9.20;;;;;;;;;;5054138;28;20522;-67
2021/10/27 02:27:58;;;;;;;14.00;7.55;;;;;;;;;;5048931;28;20021;-66
2021/10/27 02:30:24;;;;;;;19.35;8.32;;;;;;;;;;5048971;28;20400;-66
2021/10/27 02:32:51;;;;;;;18.83;8.55;;;;;;;;;;5052759;28;20049;-67
2021/10/27 02:35:17;;;;;;;15.80;7.97;;;;;;;;;;5051997;28;20029;-67
2021/10/27 02:37:43;;;;;;;14.25;7.13;;;;;;;;;;5048854;28;20017;-67
2021/10/27 02:40:11;;;;;;;12.70;7.10;;;;;;;;;;5048323;28;20068;-66
2021/10/27 02:42:38;;;;;;;13.20;6.78;;;;;;;;;;5048686;28;20095;-67
2021/10/27 02:45:05;;;;;;;13.10;7.00;;;;;;;;;;5064704;28;20025;-66
2021/10/27 02:47:31;;;;;;;15.80;7.13;;;;;;;;;;5050230;28;20048;-66
2021/10/27 02:49:57;;;;;;;13.25;7.50;;;;;;;;;;5048575;28;20104;-67
2021/10/27 02:52:23;;;;;;;13.32;7.47;;;;;;;;;;5048018;28;20079;-67
2021/10/27 02:54:49;;;;;;;13.45;6.90;;;;;;;;;;5053939;28;20033;-67
2021/10/27 02:57:15;;;;;;;13.15;6.72;;;;;;;;;;5049501;28;20072;-67
2021/10/27 02:59:41;;;;;;;16.88;7.35;;;;;;;;;;5051203;28;20078;-66
2021/10/27 03:02:07;;;;;;;15.95;7.40;;;;;;;;;;5047795;28;20056;-66
2021/10/27 03:04:33;;;;;;;14.13;7.05;;;;;;;;;;5048982;28;20421;-67
2021/10/27 03:06:59;;;;;;;12.98;7.18;;;;;;;;;;5047805;28;20021;-66
2021/10/27 03:09:25;;;;;;;13.85;7.45;;;;;;;;;;5048422;28;20024;-66
2021/10/27 03:11:53;;;;;;;15.10;7.68;;;;;;;;;;5051208;28;20040;-66
2021/10/27 03:14:19;;;;;;;13.18;7.05;;;;;;;;;;5049499;28;20032;-66
2021/10/27 03:16:45;;;;;;;12.00;6.95;;;;;;;;;;5047492;28;20021;-66
2021/10/27 03:19:11;;;;;;;13.55;6.78;;;;;;;;;;5047859;28;20429;-66
2021/10/27 03:21:37;;;;;;;15.23;7.22;;;;;;;;;;5047616;28;20071;-66
2021/10/27 03:24:03;;;;;;;13.07;7.22;;;;;;;;;;5055368;28;20051;-66
2021/10/27 03:26:29;;;;;;;17.55;7.85;;;;;;;;;;5047479;28;20036;-66
2021/10/27 03:28:55;;;;;;;12.18;6.53;;;;;;;;;;5046887;28;20029;-67
2021/10/27 03:31:21;;;;;;;13.02;6.40;;;;;;;;;;5046561;28;20163;-67
2021/10/27 03:33:47;;;;;;;14.68;6.82;;;;;;;;;;5048522;28;20045;-66
2021/10/27 03:36:14;;;;;;;13.70;7.10;;;;;;;;;;5048342;28;20041;-66
2021/10/27 03:38:40;;;;;;;14.15;6.57;;;;;;;;;;5049895;28;20047;-66
2021/10/27 03:41:06;;;;;;;13.45;6.38;;;;;;;;;;5047647;28;20037;-67
2021/10/27 03:43:32;;;;;;;13.35;6.85;;;;;;;;;;5049814;28;20108;-66
2021/10/27 03:45:58;;;;;;;12.38;6.50;;;;;;;;;;5057307;28;20445;-67
2021/10/27 03:48:25;;;;;;;13.13;6.43;;;;;;;;;;5047660;28;20357;-67
2021/10/27 03:50:51;;;;;;;12.63;7.13;;;;;;;;;;5050719;28;20104;-67
2021/10/27 03:53:17;;;;;;;12.77;6.72;;;;;;;;;;5047418;28;20124;-67
2021/10/27 03:55:43;;;;;;;12.77;5.95;;;;;;;;;;5052190;28;20025;-66
2021/10/27 03:58:09;;;;;;;10.85;5.93;;;;;;;;;;5047594;28;20603;-67
2021/10/27 04:00:39;;;;;;;10.40;6.32;;;;;;;;;;5047635;28;20067;-66
2021/10/27 04:03:06;;;;;;;11.68;6.32;;;;;;;;;;5049168;28;20134;-67
2021/10/27 04:05:32;;;;;;;12.00;6.30;;;;;;;;;;5050917;28;20036;-66
2021/10/27 04:07:58;;;;;;;11.05;6.22;;;;;;;;;;5047440;28;20025;-67
2021/10/27 04:10:24;;;;;;;13.50;6.15;;;;;;;;;;5047534;28;20180;-67
2021/10/27 04:12:50;;;;;;;11.63;6.32;;;;;;;;;;5047225;28;20051;-67
2021/10/27 04:15:16;;;;;;;15.93;6.72;;;;;;;;;;5048018;28;20044;-67
2021/10/27 04:17:42;;;;;;;17.63;7.30;;;;;;;;;;5048940;28;20047;-67
2021/10/27 04:20:09;;;;;;;13.40;6.63;;;;;;;;;;5044781;28;20037;-66
2021/10/27 04:22:37;;;;;;;14.98;6.68;;;;;;;;;;5046321;28;20033;-66
2021/10/27 04:25:04;;;;;;;13.73;6.32;;;;;;;;;;5050992;28;20048;-66
2021/10/27 04:27:30;;;;;;;12.02;6.80;;;;;;;;;;5045454;28;20025;-66
2021/10/27 04:29:56;;;;;;;13.10;6.97;;;;;;;;;;5048558;28;20025;-66
2021/10/27 04:32:22;;;;;;;12.85;6.72;;;;;;;;;;5046463;28;20021;-68
2021/10/27 04:34:48;;;;;;;12.40;6.60;;;;;;;;;;5048814;28;20079;-68
2021/10/27 04:37:16;;;;;;;12.88;6.68;;;;;;;;;;5045052;28;20025;-68
2021/10/27 04:39:42;;;;;;;13.60;6.47;;;;;;;;;;5045834;28;20025;-67
2021/10/27 04:42:08;;;;;;;12.05;5.95;;;;;;;;;;5047404;28;20094;-68
2021/10/27 04:44:34;;;;;;;12.70;6.35;;;;;;;;;;5057905;28;20032;-67
2021/10/27 04:47:03;;;;;;;11.95;5.97;;;;;;;;;;5048325;28;20033;-67
2021/10/27 04:49:29;;;;;;;10.60;6.18;;;;;;;;;;5050688;28;20021;-66
2021/10/27 04:51:55;;;;;;;12.00;6.53;;;;;;;;;;5050438;28;20104;-66
2021/10/27 04:54:21;;;;;;;12.10;6.45;;;;;;;;;;5045492;28;20064;-66
2021/10/27 04:56:47;;;;;;;13.90;6.13;;;;;;;;;;5053054;28;20370;-67
2021/10/27 04:59:14;;;;;;;12.85;6.90;;;;;;;;;;5049209;28;20035;-66
2021/10/27 05:01:41;;;;;;;12.15;6.15;;;;;;;;;;5050419;28;20033;-66
2021/10/27 05:04:08;;;;;;;10.23;6.00;;;;;;;;;;5052897;28;20469;-67
2021/10/27 05:06:35;;;;;;;11.05;6.25;;;;;;;;;;5051159;28;20037;-66
2021/10/27 05:09:00;;;;;;;11.13;5.60;;;;;;;;;;5052964;28;20021;-67
2021/10/27 05:11:26;;;;;;;14.48;6.18;;;;;;;;;;5051995;28;20117;-67
2021/10/27 05:13:53;;;;;;;11.93;5.97;;;;;;;;;;5055712;28;20024;-67
2021/10/27 05:16:19;;;;;;;14.73;6.53;;;;;;;;;;5057816;28;20033;-68
2021/10/27 05:18:45;;;;;;;11.27;5.78;;;;;;;;;;5050833;28;20024;-69
2021/10/27 05:21:11;;;;;;;12.40;6.30;;;;;;;;;;5052218;28;20075;-68
2021/10/27 05:23:37;;;;;;;14.02;6.28;;;;;;;;;;5055696;28;20064;-70
2021/10/27 05:26:04;;;;;;;11.07;6.05;;;;;;;;;;5052230;28;20388;-68
2021/10/27 05:28:30;;;;;;;18.75;8.00;;;;;;;;;;5050097;28;20033;-69
2021/10/27 05:30:56;;;;;;;21.67;9.52;;;;;;;;;;5049907;28;20033;-68
2021/10/27 05:33:22;;;;;;;20.83;8.70;;;;;;;;;;5051372;28;20053;-68
2021/10/27 05:35:48;;;;;;;17.58;7.75;;;;;;;;;;5049437;28;20234;-69
2021/10/27 05:38:14;;;;;;;14.32;7.03;;;;;;;;;;5050036;28;20036;-69
2021/10/27 05:40:40;;;;;;;14.55;7.60;;;;;;;;;;5049250;28;20086;-66
2021/10/27 05:43:07;;;;;;;21.73;8.88;;;;;;;;;;5050203;28;20069;-67
2021/10/27 05:45:33;;;;;;;16.77;9.18;;;;;;;;;;5063422;28;20365;-67
2021/10/27 05:48:01;;;;;;;18.88;8.38;;;;;;;;;;5052405;28;20048;-67
2021/10/27 05:50:43;;;;;;;16.63;7.72;;;;;;;;;;5051039;28;20070;-66
2021/10/27 05:55:53;;;;;;;18.45;8.23;;;;;;;;;;5046578;28;20439;-67
2021/10/27 05:58:20;;;;;;;14.60;7.80;;;;;;;;;;5049650;28;20041;-67
2021/10/27 06:00:46;;;;;;;12.63;6.72;;;;;;;;;;5049367;28;20021;-67
2021/10/27 06:03:12;;;;;;;17.30;8.30;;;;;;;;;;5051578;28;20037;-71
2021/10/27 06:05:39;;;;;;;23.60;10.93;;;;;;;;;;5053873;28;20423;-66
2021/10/27 06:08:05;;;;;;;23.23;10.60;;;;;;;;;;5049371;28;20043;-67
2021/10/27 06:10:31;;;;;;;19.70;9.35;;;;;;;;;;5048851;28;20055;-66
2021/10/27 06:13:02;;;;;;;20.23;9.85;;;;;;;;;;5049655;28;20309;-67
2021/10/27 06:15:28;;;;;;;21.80;9.80;;;;;;;;;;5047611;28;20072;-67
2021/10/27 06:17:54;;;;;;;19.27;9.63;;;;;;;;;;5052196;28;20040;-69
2021/10/27 06:20:20;;;;;;;19.98;9.15;;;;;;;;;;5050080;28;20064;-67
2021/10/27 06:22:46;;;;;;;20.23;10.18;;;;;;;;;;5049244;28;20044;-67
2021/10/27 06:25:13;;;;;;;18.17;9.18;;;;;;;;;;5053296;28;20086;-68
2021/10/27 06:27:42;;;;;;;25.15;10.32;;;;;;;;;;5048931;28;20112;-67
2021/10/27 06:33:01;;;;;;;15.00;8.57;;;;;;;;;;5050724;28;20041;-67
2021/10/27 06:35:31;;;;;;;15.88;8.85;;;;;;;;;;5053118;28;20388;-67
2021/10/27 06:38:28;;;;;;;17.92;8.65;;;;;;;;;;5049349;28;20064;-67
2021/10/27 06:48:53;;;;;;;16.05;9.75;;;;;;;;;;5048897;28;20064;-67
2021/10/27 06:51:19;;;;;;;17.40;9.80;;;;;;;;;;5049352;28;20030;-67
2021/10/27 06:53:46;;;;;;;20.05;10.52;;;;;;;;;;5052254;28;20397;-66
2021/10/27 06:56:13;;;;;;;21.60;12.18;;;;;;;;;;5048238;28;20430;-67
2021/10/27 06:58:46;;;;;;;24.23;12.23;;;;;;;;;;5048661;28;20384;-66
2021/10/27 07:07:05;;;;;;;21.13;11.98;;;;;;;;;;5048948;28;20029;-67
2021/10/27 07:17:27;;;;;;;13.10;7.53;;;;;;;;;;5060503;28;20119;-67
2021/10/27 07:19:54;;;;;;;16.08;8.27;;;;;;;;;;5051661;28;20029;-67
2021/10/27 07:22:20;;;;;;;14.70;8.95;;;;;;;;;;5048426;28;20040;-67
2021/10/27 07:24:46;;;;;;;13.38;7.82;;;;;;;;;;5053907;28;20025;-67
2021/10/27 07:27:12;;;;;;;13.27;8.95;;;;;;;;;;5049119;28;20478;-67
2021/10/27 07:29:41;;;;;;;10.63;7.57;;;;;;;;;;5050576;28;20441;-67
2021/10/27 07:32:09;;;;;;;10.65;7.28;;;;;;;;;;5048074;28;20279;-67
2021/10/27 07:34:45;;;;;;;9.85;6.43;;;;;;;;;;5051039;28;20481;-66
2021/10/27 07:40:32;;;;;;;7.38;3.30;;;;;;;;;;5048142;28;20109;-67
2021/10/27 07:42:53;;;;;;;5.53;2.90;;;;;;;;;;5047828;28;20040;-67
2021/10/27 07:45:23;;;;;;;5.72;2.67;;;;;;;;;;5061956;28;20024;-67
2021/10/27 07:47:49;;;;;;;5.05;3.13;;;;;;;;;;5047112;28;20033;-67
2021/10/27 07:50:15;;;;;;;5.50;3.42;;;;;;;;;;5047746;28;20033;-67
2021/10/27 07:52:41;;;;;;;8.15;4.20;;;;;;;;;;5046381;28;20029;-67
2021/10/27 07:55:07;;;;;;;9.43;4.65;;;;;;;;;;5052042;28;20025;-67
2021/10/27 07:57:33;;;;;;;8.77;4.07;;;;;;;;;;5047357;28;20120;-67
2021/10/27 07:59:59;;;;;;;8.82;4.47;;;;;;;;;;5050671;28;20060;-67
2021/10/27 08:02:25;;;;;;;10.00;5.20;;;;;;;;;;5051223;28;20091;-67
2021/10/27 08:04:51;;;;;;;8.13;5.13;;;;;;;;;;5050717;28;20021;-67
2021/10/27 08:07:17;;;;;;;8.45;4.25;;;;;;;;;;5046726;28;20052;-67
2021/10/27 08:09:43;;;;;;;10.55;4.95;;;;;;;;;;5048118;28;20053;-67
2021/10/27 08:12:09;;;;;;;8.57;4.50;;;;;;;;;;5049565;28;20448;-66
2021/10/27 08:14:35;;;;;;;9.23;4.18;;;;;;;;;;5060922;28;20024;-68
2021/10/27 08:17:01;;;;;;;8.57;4.95;;;;;;;;;;5049737;28;20229;-67
2021/10/27 08:19:27;;;;;;;6.90;4.50;;;;;;;;;;5047198;28;20488;-67
2021/10/27 08:21:58;;;;;;;8.13;4.35;;;;;;;;;;5047922;28;20066;-68
2021/10/27 08:24:25;;;;;;;7.20;4.50;;;;;;;;;;5046844;28;20061;-67
2021/10/27 08:27:03;;;;;;;8.45;4.45;;;;;;;;;;5055025;28;20032;-67
2021/10/27 08:29:31;;;;;;;8.88;4.50;;;;;;;;;;5054366;28;20032;-67
2021/10/27 08:32:01;;;;;;;6.87;4.10;;;;;;;;;;5051516;28;20025;-67
2021/10/27 08:34:46;;;;;;;6.07;3.90;;;;;;;;;;5053674;28;20041;-67
2021/10/27 08:37:12;;;;;;;7.50;4.18;;;;;;;;;;5051115;28;20024;-67
2021/10/27 08:39:38;;;;;;;10.52;6.32;;;;;;;;;;5051053;28;20025;-67
2021/10/27 08:42:07;;;;;;;13.50;5.97;;;;;;;;;;5053712;28;20040;-68
2021/10/27 08:44:34;;;;;;;8.20;4.60;;;;;;;;;;5052292;28;20113;-67
2021/10/27 08:47:01;;;;;;;8.75;4.10;;;;;;;;;;5050656;28;20064;-68
2021/10/27 08:49:27;;;;;;;7.37;3.30;;;;;;;;;;5051400;28;20025;-67
2021/10/27 08:51:57;;;;;;;6.75;3.00;;;;;;;;;;5051256;28;20680;-68
2021/10/27 08:54:23;;;;;;;5.35;3.08;;;;;;;;;;5040266;28;20017;-67
2021/10/27 08:56:50;;;;;;;6.90;3.28;;;;;;;;;;5054583;28;20071;-67
2021/10/27 08:59:23;;;;;;;9.98;3.17;;;;;;;;;;5050526;28;20021;-67
2021/10/27 09:08:04;;;;;;;7.88;3.10;;;;;;;;;;5057464;28;20179;-67
2021/10/27 10:06:31;;;;;;;6.72;2.13;;;;;;;;;;5034941;28;20026;-62
2021/10/27 10:08:57;;;;;;;5.97;2.40;;;;;;;;;;5052613;28;20074;-62
2021/10/27 10:11:27;;;;;;;4.05;2.20;;;;;;;;;;5047157;28;20167;-63
2021/10/27 10:13:54;;;;;;;4.75;2.42;;;;;;;;;;5045959;28;20428;-62
2021/10/27 10:16:20;;;;;;;4.22;2.40;;;;;;;;;;5047782;28;20021;-62
2021/10/27 10:18:47;;;;;;;5.35;2.40;;;;;;;;;;5047714;28;20028;-62
2021/10/27 10:21:14;;;;;;;4.60;2.10;;;;;;;;;;5062596;28;20037;-63
2021/10/27 10:23:41;;;;;;;3.28;1.95;;;;;;;;;;5048736;28;20021;-64
2021/10/27 10:26:08;;;;;;;4.65;2.08;;;;;;;;;;5048531;28;20029;-63
2021/10/27 10:28:38;;;;;;;2.70;1.85;;;;;;;;;;5050108;28;20047;-63
2021/10/27 10:31:06;;;;;;;3.78;2.08;;;;;;;;;;5049252;28;20033;-62
2021/10/27 10:33:37;;;;;;;4.00;2.20;;;;;;;;;;5050063;28;20037;-64
2021/10/27 10:44:34;;;;;;;3.85;1.95;;;;;;;;;;5050543;28;20048;-63
2021/10/27 11:24:02;;;;;;;5.80;1.70;;;;;;;;;;5049207;28;20087;-64
2021/10/27 11:37:30;;;;;;;3.83;1.70;;;;;;;;;;5044465;28;20095;-63
2021/10/27 11:40:14;;;;;;;3.33;1.52;;;;;;;;;;5045026;28;20024;-63
2021/10/27 11:42:47;;;;;;;4.30;1.70;;;;;;;;;;5044748;28;20105;-64
2021/10/27 11:45:22;;;;;;;3.25;1.77;;;;;;;;;;5040893;28;20033;-64
2021/10/27 11:47:49;;;;;;;4.50;2.05;;;;;;;;;;5049827;28;20104;-64
2021/10/27 11:50:17;;;;;;;4.50;2.00;;;;;;;;;;5047668;28;20028;-63
2021/10/27 11:52:43;;;;;;;4.60;2.22;;;;;;;;;;5047398;28;20385;-65
2021/10/27 11:55:10;;;;;;;7.28;2.10;;;;;;;;;;5047082;28;20067;-64
2021/10/27 11:57:38;;;;;;;5.85;1.85;;;;;;;;;;5037102;28;20106;-64
2021/10/27 12:00:06;;;;;;;6.28;2.13;;;;;;;;;;5047472;28;21076;-63
2021/10/27 12:02:54;;;;;;;3.75;1.98;;;;;;;;;;5049926;28;20021;-62
2021/10/27 12:05:20;;;;;;;;;;;;;;;;;;5048610;28;20024;-62
2021/10/27 12:07:56;;;;;;;6.47;2.42;;;;;;;;;;5043550;28;19908;-65
2021/10/27 12:10:42;;;;;;;4.72;2.60;;;;;;;;;;5041434;28;20468;-63
2021/10/27 12:13:16;;;;;;;5.53;2.30;;;;;;;;;;5049013;28;20056;-62
2021/10/27 12:15:57;;;;;;;4.15;1.98;;;;;;;;;;5047265;28;20032;-63
2021/10/27 12:18:25;;;;;;;7.13;2.40;;;;;;;;;;5037157;28;20029;-63
2021/10/27 12:20:56;;;;;;;5.53;2.33;;;;;;;;;;5050637;28;20025;-63
2021/10/27 12:23:23;;;;;;;8.15;2.35;;;;;;;;;;5051225;28;20574;-64
2021/10/27 12:25:52;;;;;;;7.27;2.50;;;;;;;;;;5044947;28;20032;-64
2021/10/27 12:28:23;;;;;;;5.90;2.47;;;;;;;;;;5044929;28;21161;-65
2021/10/27 12:30:49;;;;;;;8.02;3.20;;;;;;;;;;5046970;28;20025;-65
2021/10/27 12:33:15;;;;;;;83.30;34.15;;;;;;;;;;5049283;28;20404;-64
2021/10/27 12:35:42;;;;;;;56.80;23.73;;;;;;;;;;5050899;28;20039;-64
2021/10/27 12:38:27;;;;;;;162.82;61.85;;;;;;;;;;5035272;28;20502;-64
2021/10/27 12:41:00;;;;;;;6.60;3.28;;;;;;;;;;5046612;28;20025;-65
2021/10/27 12:43:32;;;;;;;18.42;8.48;;;;;;;;;;5048400;28;20039;-64
2021/10/27 12:45:58;;;;;;;9.52;3.00;;;;;;;;;;5047193;28;20370;-64
2021/10/27 12:48:26;;;;;;;13.45;5.90;;;;;;;;;;5046182;28;20099;-64
2021/10/27 12:50:51;;;;;;;6.60;2.95;;;;;;;;;;5050670;28;20057;-64
2021/10/27 12:53:28;;;;;;;9.93;2.90;;;;;;;;;;5051006;28;20109;-63
2021/10/27 12:56:03;;;;;;;6.57;2.50;;;;;;;;;;5045571;28;20866;-64
2021/10/27 12:58:32;;;;;;;11.43;3.75;;;;;;;;;;5047017;28;20025;-64
2021/10/27 13:13:58;;;;;;;8.93;3.15;;;;;;;;;;5049818;28;20436;-63
2021/10/27 13:32:56;;;;;;;12.45;2.60;;;;;;;;;;5052253;28;20396;-63
2021/10/27 13:35:23;;;;;;;6.13;2.80;;;;;;;;;;5039759;28;20112;-63
2021/10/27 13:37:49;;;;;;;11.43;3.17;;;;;;;;;;5048857;28;20071;-63
2021/10/27 13:40:15;;;;;;;11.35;3.80;;;;;;;;;;5048503;28;20025;-63
2021/10/27 13:58:53;;;;;;;13.00;4.10;;;;;;;;;;5049372;28;20508;-63
2021/10/27 14:06:57;;;;;;;13.85;6.38;;;;;;;;;;5049551;28;20039;-63
2021/10/27 14:09:34;;;;;;;15.70;8.32;;;;;;;;;;5034068;28;20396;-62
2021/10/27 14:12:19;;;;;;;24.60;9.02;;;;;;;;;;5052039;28;20388;-63
2021/10/27 14:17:46;;;;;;;27.17;8.95;;;;;;;;;;5051574;28;20145;-63
2021/10/27 14:22:14;;;;;;;36.55;12.68;;;;;;;;;;5049807;28;20029;-63
2021/10/27 14:39:45;;;;;;;15.73;6.80;;;;;;;;;;5040549;28;20047;-64
2021/10/27 15:20:36;;;;;;;24.35;10.13;;;;;;;;;;5050839;28;20120;-63
2021/10/27 15:30:48;;;;;;;18.27;8.20;;;;;;;;;;5034979;28;20044;-64
2021/10/27 15:51:43;;;;;;;41.85;23.42;;;;;;;;;;5034543;28;20172;-63
2021/10/27 15:54:12;;;;;;;59.83;33.03;;;;;;;;;;5049251;28;20032;-63
2021/10/27 15:56:38;;;;;;;51.92;24.20;;;;;;;;;;5048990;28;20039;-62
2021/10/27 15:59:05;;;;;;;44.05;20.92;;;;;;;;;;5047731;28;20223;-63
2021/10/27 16:01:31;;;;;;;32.10;15.95;;;;;;;;;;5047688;28;20033;-63
2021/10/27 16:03:57;;;;;;;41.53;20.30;;;;;;;;;;5048924;28;20461;-63
2021/10/27 16:06:24;;;;;;;36.83;15.77;;;;;;;;;;5048086;28;20032;-63
2021/10/27 16:08:55;;;;;;;31.93;13.93;;;;;;;;;;5046254;28;20021;-63
2021/10/27 16:11:20;;;;;;;38.33;14.93;;;;;;;;;;5049689;28;20698;-63
2021/10/27 16:13:47;;;;;;;33.30;14.88;;;;;;;;;;5047531;28;20108;-63
2021/10/27 16:16:14;;;;;;;27.08;10.88;;;;;;;;;;5047012;28;20104;-63
2021/10/27 16:18:40;;;;;;;30.27;12.23;;;;;;;;;;5047882;28;20021;-63
2021/10/27 16:21:06;;;;;;;20.50;10.43;;;;;;;;;;5049920;28;20090;-63
2021/10/27 16:23:32;;;;;;;24.73;10.35;;;;;;;;;;5047797;28;20480;-63
2021/10/27 16:26:00;;;;;;;19.45;9.90;;;;;;;;;;5047544;28;20013;-63
2021/10/27 16:28:26;;;;;;;26.65;12.48;;;;;;;;;;5047536;28;20025;-63
2021/10/27 16:30:53;;;;;;;39.00;16.45;;;;;;;;;;5052953;28;20013;-63
2021/10/27 16:33:21;;;;;;;65.53;25.40;;;;;;;;;;5048457;28;20046;-63
2021/10/27 16:35:48;;;;;;;49.10;21.83;;;;;;;;;;5050601;28;20445;-63
2021/10/27 16:38:14;;;;;;;35.08;16.02;;;;;;;;;;5047104;28;20037;-63
2021/10/27 16:40:40;;;;;;;34.38;17.88;;;;;;;;;;5047204;28;20415;-63
2021/10/27 16:43:07;;;;;;;35.33;16.10;;;;;;;;;;5049187;28;20044;-63
2021/10/27 16:45:33;;;;;;;19.58;10.48;;;;;;;;;;5050518;28;20673;-64
2021/10/27 16:47:59;;;;;;;43.28;19.63;;;;;;;;;;5054006;28;20033;-63
2021/10/27 16:50:25;;;;;;;45.17;21.40;;;;;;;;;;5050859;28;20519;-64
2021/10/27 16:52:51;;;;;;;37.83;18.38;;;;;;;;;;5049740;28;20036;-63
2021/10/27 16:55:19;;;;;;;56.08;28.45;;;;;;;;;;5050230;28;20139;-64
2021/10/27 16:57:46;;;;;;;56.93;27.00;;;;;;;;;;5050652;28;20048;-64
2021/10/27 17:00:12;;;;;;;61.95;28.38;;;;;;;;;;5052185;28;20024;-71
2021/10/27 17:02:38;;;;;;;90.05;45.55;;;;;;;;;;5052849;28;20707;-68
2021/10/27 17:05:05;;;;;;;76.35;40.47;;;;;;;;;;5050733;28;20064;-68
2021/10/27 17:07:32;;;;;;;102.65;53.50;;;;;;;;;;5049773;28;20624;-67
2021/10/27 17:09:59;;;;;;;103.68;42.20;;;;;;;;;;5049655;28;20021;-67
2021/10/27 17:12:25;;;;;;;60.45;28.42;;;;;;;;;;5050188;28;20044;-67
2021/10/27 17:14:51;;;;;;;48.85;25.75;;;;;;;;;;5053995;28;20107;-67
2021/10/27 17:17:17;;;;;;;53.50;27.77;;;;;;;;;;5050267;28;20033;-67
2021/10/27 17:19:44;;;;;;;44.88;23.55;;;;;;;;;;5050632;28;20373;-66
2021/10/27 17:22:12;;;;;;;39.40;18.90;;;;;;;;;;5051483;28;20025;-68
2021/10/27 17:24:38;;;;;;;30.67;17.10;;;;;;;;;;5049065;28;20017;-67
2021/10/27 17:27:04;;;;;;;38.55;18.98;;;;;;;;;;5052449;28;20039;-68
2021/10/27 17:29:33;;;;;;;38.55;19.48;;;;;;;;;;5051240;28;20021;-66
2021/10/27 17:31:59;;;;;;;27.83;14.48;;;;;;;;;;5052226;28;20064;-67
2021/10/27 17:34:27;;;;;;;37.17;18.83;;;;;;;;;;5051147;28;20048;-66
2021/10/27 17:36:53;;;;;;;23.60;11.40;;;;;;;;;;5050996;28;20017;-66
2021/10/27 17:39:19;;;;;;;17.08;9.30;;;;;;;;;;5050268;28;20021;-68
2021/10/27 17:41:47;;;;;;;25.15;10.93;;;;;;;;;;5053038;28;20123;-68
2021/10/27 17:44:14;;;;;;;42.25;18.40;;;;;;;;;;5049842;28;20025;-69
2021/10/27 17:46:48;;;;;;;43.15;21.80;;;;;;;;;;5049614;28;20544;-68
2021/10/27 18:00:01;;;;;;;99.30;50.13;;;;;;;;;;5052836;28;20063;-67
2021/10/27 18:02:28;;;;;;;128.88;55.28;;;;;;;;;;5051380;28;20051;-69
2021/10/27 18:04:54;;;;;;;83.35;41.00;;;;;;;;;;5049194;28;20017;-69
2021/10/27 18:07:24;;;;;;;55.70;24.60;;;;;;;;;;5045550;28;20017;-68
2021/10/27 18:09:50;;;;;;;291.27;95.72;;;;;;;;;;5042961;28;20051;-68
2021/10/27 18:12:21;;;;;;;137.43;52.30;;;;;;;;;;5050006;28;21317;-69
2021/10/27 18:14:47;;;;;;;85.78;37.60;;;;;;;;;;5051395;28;20419;-70
2021/10/27 18:17:17;;;;;;;87.38;39.08;;;;;;;;;;5049435;28;20033;-67
2021/10/27 18:20:02;;;;;;;84.32;39.97;;;;;;;;;;5046860;28;20431;-67
2021/10/27 18:22:45;;;;;;;60.05;31.15;;;;;;;;;;5047878;28;20064;-67
2021/10/27 18:28:28;;;;;;;37.20;18.58;;;;;;;;;;5049496;28;20076;-68
2021/10/27 18:36:16;;;;;;;33.30;15.82;;;;;;;;;;5046506;28;20075;-68
2021/10/27 18:36:39;;;;;;;32.85;14.57;;;;;;;;;;5049625;28;20052;-68
2021/10/27 18:39:16;;;;;;;25.92;13.57;;;;;;;;;;5051772;28;20029;-68
2021/10/27 18:41:51;;;;;;;35.42;16.85;;;;;;;;;;5050465;28;20116;-68
2021/10/27 18:44:18;;;;;;;54.25;22.55;;;;;;;;;;5049278;28;20094;-66
2021/10/27 18:46:47;;;;;;;29.67;15.68;;;;;;;;;;5047727;28;20037;-68
2021/10/27 18:49:14;;;;;;;39.78;19.60;;;;;;;;;;5050941;28;20017;-68
2021/10/27 18:51:50;;;;;;;37.65;17.27;;;;;;;;;;5049251;28;20052;-64
2021/10/27 18:54:47;;;;;;;46.72;24.17;;;;;;;;;;5047637;28;20017;-66
2021/10/27 18:57:29;;;;;;;68.88;32.50;;;;;;;;;;5049003;28;20187;-64
2021/10/27 19:00:08;;;;;;;31.52;15.80;;;;;;;;;;5050397;28;20135;-67
2021/10/27 19:16:16;;;;;;;99.68;49.53;;;;;;;;;;5048234;28;20040;-69
2021/10/27 19:18:43;;;;;;;105.07;51.40;;;;;;;;;;5050873;28;20048;-68
2021/10/27 19:21:09;;;;;;;97.38;41.25;;;;;;;;;;5051052;28;20032;-70
2021/10/27 19:23:37;;;;;;;58.40;26.08;;;;;;;;;;5049469;28;20477;-70
2021/10/27 20:17:12;;;;;;;33.08;17.23;;;;;;;;;;5048354;28;20063;-70
2021/10/27 20:20:10;;;;;;;30.83;14.57;;;;;;;;;;5049856;28;20040;-70
2021/10/27 20:50:48;;;;;;;40.40;17.88;;;;;;;;;;5050649;28;20043;-70
2021/10/27 20:53:05;;;;;;;34.00;15.30;;;;;;;;;;5047463;28;20381;-70
2021/10/27 20:55:29;;;;;;;34.55;16.15;;;;;;;;;;5052849;28;20120;-70
2021/10/27 21:03:29;;;;;;;;;;;;;;;;;;5052558;28;20140;-68
2021/10/27 21:14:05;;;;;;;45.10;18.77;;;;;;;;;;5052189;28;20059;-71
2021/10/27 21:16:33;;;;;;;27.10;11.88;;;;;;;;;;5051742;28;20032;-70
2021/10/27 21:18:59;;;;;;;28.23;10.75;;;;;;;;;;5049563;28;20037;-70
2021/10/27 21:21:25;;;;;;;69.43;17.65;;;;;;;;;;5051654;28;20029;-70